• Join FlightAware (Why Join?)
  • Login
  • US Flag 
08:56PM EDT


 

Airport Tracker/Info


-or-


 

Live Flight TrackerFlight Track Log ✈ CTL62 ✈ 01-May-2013 ✈ KOSU - KPWK

Flight Track Log - Related Links

Times and Time Zones

All times are in EDT time to prevent confusion due to time zone crossing. See the CTL62 flight status page for this flight to view local times or setup timezone preferences in your user account.

Time Position Orientation Groundspeed Altitude Reporting Facility
EDT Latitude Longitude Course Direction KTS MPH feet Rate Location/Type
11:29PM 40.1086 -83.0750 326° Northwest 175 201 2,100  Level Indianapolis Center
11:30PM 40.1539 -83.1156 326° Northwest 152 175 3,100 720 Climbing Indianapolis Center
11:31PM 40.1664 -83.1153 North 163 188 3,300 780 Climbing Indianapolis Center
11:31PM 40.1947 -83.1314 337° Northwest 157 181 3,900 780 Climbing Indianapolis Center
11:32PM 40.2056 -83.1369 339° North 154 177 4,100 540 Climbing Indianapolis Center
11:32PM 40.2325 -83.1603 327° Northwest 162 186 4,500 540 Climbing Indianapolis Center
11:33PM 40.2422 -83.1706 321° Northwest 157 181 4,700 720 Climbing Indianapolis Center
11:34PM 40.2664 -83.2200 303° West 164 189 5,500 780 Climbing Indianapolis Center
11:35PM 40.2869 -83.2694 299° West 158 182 6,300 660 Climbing Indianapolis Center
11:36PM 40.3078 -83.3197 299° West 156 180 6,900 540 Climbing Indianapolis Center
11:37PM 40.3303 -83.3719 299° West 161 185 7,500 540 Climbing Indianapolis Center
11:38PM 40.3522 -83.4247 299° West 163 188 8,100 240 Climbing Indianapolis Center
11:39PM 40.3764 -83.4811 299° West 172 198 8,100  Level Indianapolis Center
11:40PM 40.4033 -83.5428 300° West 188 216 8,100  Level Indianapolis Center
11:41PM 40.4297 -83.6042 299° West 192 221 8,100  Level Indianapolis Center
11:42PM 40.4564 -83.6658 300° West 192 221 8,100 -60 Level Indianapolis Center
11:43PM 40.4869 -83.7392 299° West 195 224 8,000 -60 Descending Indianapolis Center
11:44PM 40.5172 -83.7992 304° West 195 224 8,000  Level Indianapolis Center
11:45PM 40.5419 -83.8611 298° West 192 221 8,000  Level Indianapolis Center
11:46PM 40.5689 -83.9228 300° West 193 222 8,100 60 Climbing Indianapolis Center
11:47PM 40.5956 -83.9822 301° West 189 217 8,200  Climbing Indianapolis Center
11:48PM 40.6211 -84.0444 298° West 190 219 8,100 -60 Descending Indianapolis Center
11:49PM 40.6481 -84.1061 300° West 195 224 8,100  Level Indianapolis Center
11:50PM 40.6742 -84.1678 299° West 190 219 8,100 -60 Level Indianapolis Center
11:51PM 40.6986 -84.2311 297° West 195 224 8,000  Descending Indianapolis Center
11:52PM 40.7253 -84.2936 299° West 194 223 8,100  Climbing Indianapolis Center
11:53PM 40.7500 -84.3558 298° West 191 220 8,100  Level Indianapolis Center
11:54PM 40.7742 -84.4183 297° West 192 221 8,100  Level Indianapolis Center
11:55PM 40.8008 -84.4797 300° West 192 221 8,100 -60 Level Indianapolis Center
11:56PM 40.8261 -84.5467 297° West 190 219 8,000 -120 Descending Chicago Center
11:57PM 40.8514 -84.6083 298° West 191 220 7,900  Descending Chicago Center
11:58PM 40.8767 -84.6692 299° West 190 219 8,000  Climbing Chicago Center
11:59PM 40.9014 -84.7300 298° West 188 216 8,000  Level Chicago Center
12:00AM 40.9258 -84.7922 297° West 191 220 8,100  Climbing Chicago Center
12:01AM 40.9503 -84.8536 298° West 190 219 8,100  Level Chicago Center
12:02AM 40.9744 -84.9156 297° West 188 216 8,100  Level Chicago Center
12:03AM 40.9997 -84.9764 299° West 189 217 8,100  Level Chicago Center
12:04AM 41.0239 -85.0369 298° West 188 216 8,100 -60 Level Chicago Center
12:05AM 41.0506 -85.1006 299° West 193 222 8,000 -60 Descending Chicago Center
12:06AM 41.0753 -85.1631 298° West 192 221 8,000  Level Chicago Center
12:07AM 41.1000 -85.2250 298° West 190 219 8,000  Level Chicago Center
12:08AM 41.1242 -85.2878 297° West 191 220 8,000  Level Chicago Center
12:09AM 41.1533 -85.3642 297° West 193 222 8,000  Level Chicago Center
12:10AM 41.1781 -85.4267 298° West 192 221 8,000  Level Chicago Center
12:11AM 41.2039 -85.4875 299° West 189 217 8,000  Level Chicago Center
12:12AM 41.2275 -85.5497 297° West 188 216 8,000  Level Chicago Center
12:13AM 41.2519 -85.6119 298° West 188 216 8,000  Level Chicago Center
12:14AM 41.2781 -85.6736 299° West 191 220 8,000 -60 Level Chicago Center
12:15AM 41.3019 -85.7353 297° West 189 217 7,900  Descending Chicago Center
12:16AM 41.3267 -85.7958 299° West 186 214 8,000  Climbing Chicago Center
12:17AM 41.3528 -85.8564 300° West 189 217 8,000  Level Chicago Center
12:18AM 41.3742 -85.9181 295° West 185 213 8,000  Level Chicago Center
12:19AM 41.3958 -85.9800 295° West 185 213 8,000  Level Chicago Center
12:20AM 41.4197 -86.0417 297° West 187 215 8,000  Level Chicago Center
12:21AM 41.4442 -86.1036 298° West 189 217 8,000  Level Chicago Center
12:22AM 41.4681 -86.1639 298° West 185 213 8,000  Level Chicago Center
12:24AM 41.4972 -86.2383 298° West 187 215 8,000  Level Chicago Center
12:25AM 41.5225 -86.2989 299° West 187 215 8,000  Level Chicago Center
12:26AM 41.5472 -86.3589 299° West 185 213 8,000  Level Chicago Center
12:27AM 41.5703 -86.4211 296° West 185 213 8,000  Level Chicago Center
12:28AM 41.5925 -86.4842 295° West 185 213 8,000  Level Chicago Center
12:29AM 41.6169 -86.5453 298° West 186 214 8,100  Climbing Chicago Center
12:30AM 41.6386 -86.6061 295° West 184 212 8,000 -60 Descending Chicago Center
12:31AM 41.6592 -86.6667 294° West 180 207 8,000  Level Chicago Center
12:32AM 41.6867 -86.7358 298° West 183 211 8,000  Level Chicago Center
12:33AM 41.7075 -86.7953 295° West 180 207 8,000  Level Chicago Center
12:34AM 41.7267 -86.8553 293° West 177 204 8,000  Level Chicago Center
12:35AM 41.7489 -86.9147 297° West 179 206 8,000  Level Chicago Center
12:36AM 41.7692 -86.9736 295° West 176 203 8,000  Level Chicago Center
12:37AM 41.7911 -87.0328 296° West 177 204 8,000  Level Chicago Center
12:38AM 41.8114 -87.0908 295° West 175 201 8,000  Level Chicago Center
12:39AM 41.8322 -87.1497 295° West 175 201 8,000  Level Chicago Center
12:40AM 41.8511 -87.2081 294° West 172 198 8,000 -300 Level Chicago Center
12:41AM 41.8725 -87.2692 295° West 180 207 7,500 -480 Descending Chicago Center
12:42AM 41.8956 -87.3336 296° West 192 221 7,100 -420 Descending Chicago Center
12:43AM 41.9333 -87.4167 301° West 190 219 6,700 -420 Descending Chicago TRACON
12:44AM 41.9500 -87.4833 289° West 194 223 6,300 -360 Descending Chicago TRACON
12:45AM 41.9833 -87.5500 304° West 193 222 6,000 -420 Descending Chicago TRACON
12:46AM 42.0000 -87.6167 289° West 196 226 5,500 -840 Descending Chicago TRACON
12:47AM 42.0333 -87.6833 304° West 211 243 4,200 -900 Descending Chicago TRACON
12:48AM 42.0500 -87.7500 289° West 203 234 3,700 -660 Descending Chicago TRACON
12:51AM 42.0864 -87.8455 289° West  Level FlightAware Approximate
12:58AM 42.1000 -87.9000 289° West  Level FlightAware Approximate
12:59AM 42.1143 -87.9015 289° West  Level Estimated
01:00AM 42.1143 -87.9015 289° West  Level Estimated